sensor_id;sensor_type;location;lat;lon;timestamp;P1;durP1;ratioP1;P2;durP2;ratioP2
44366;SDS011;30086;57.660;12.000;2023-04-03T00:01:36;4.22;;;1.50;;
44366;SDS011;30086;57.660;12.000;2023-04-03T00:04:03;10.30;;;1.67;;
44366;SDS011;30086;57.660;12.000;2023-04-03T00:06:30;9.80;;;1.80;;
44366;SDS011;30086;57.660;12.000;2023-04-03T00:08:56;5.43;;;1.38;;
44366;SDS011;30086;57.660;12.000;2023-04-03T00:11:22;8.23;;;1.77;;
44366;SDS011;30086;57.660;12.000;2023-04-03T00:13:48;6.13;;;1.83;;
44366;SDS011;30086;57.660;12.000;2023-04-03T00:16:14;3.63;;;0.98;;
44366;SDS011;30086;57.660;12.000;2023-04-03T00:18:40;2.33;;;1.20;;
44366;SDS011;30086;57.660;12.000;2023-04-03T00:21:07;4.15;;;1.23;;
44366;SDS011;30086;57.660;12.000;2023-04-03T00:23:33;6.22;;;1.83;;
44366;SDS011;30086;57.660;12.000;2023-04-03T00:25:59;2.17;;;1.00;;
44366;SDS011;30086;57.660;12.000;2023-04-03T00:28:26;3.90;;;1.35;;
44366;SDS011;30086;57.660;12.000;2023-04-03T00:30:52;3.33;;;1.30;;
44366;SDS011;30086;57.660;12.000;2023-04-03T00:33:18;4.63;;;1.45;;
44366;SDS011;30086;57.660;12.000;2023-04-03T00:35:48;1.75;;;1.00;;
44366;SDS011;30086;57.660;12.000;2023-04-03T00:38:14;4.22;;;1.10;;
44366;SDS011;30086;57.660;12.000;2023-04-03T00:40:44;2.90;;;1.05;;
44366;SDS011;30086;57.660;12.000;2023-04-03T00:43:15;2.13;;;0.90;;
44366;SDS011;30086;57.660;12.000;2023-04-03T00:45:44;2.97;;;0.98;;
44366;SDS011;30086;57.660;12.000;2023-04-03T00:48:15;3.08;;;1.13;;
44366;SDS011;30086;57.660;12.000;2023-04-03T00:50:42;3.58;;;1.27;;
44366;SDS011;30086;57.660;12.000;2023-04-03T00:53:15;3.10;;;0.95;;
44366;SDS011;30086;57.660;12.000;2023-04-03T00:55:42;2.25;;;1.02;;
44366;SDS011;30086;57.660;12.000;2023-04-03T00:58:08;2.40;;;1.00;;
44366;SDS011;30086;57.660;12.000;2023-04-03T01:00:35;5.80;;;1.20;;
44366;SDS011;30086;57.660;12.000;2023-04-03T01:03:03;2.92;;;0.82;;
44366;SDS011;30086;57.660;12.000;2023-04-03T01:05:29;2.17;;;1.10;;
44366;SDS011;30086;57.660;12.000;2023-04-03T01:07:55;4.13;;;1.20;;
44366;SDS011;30086;57.660;12.000;2023-04-03T01:10:22;4.63;;;1.30;;
44366;SDS011;30086;57.660;12.000;2023-04-03T01:12:50;11.15;;;1.50;;
44366;SDS011;30086;57.660;12.000;2023-04-03T01:15:21;4.57;;;1.20;;
44366;SDS011;30086;57.660;12.000;2023-04-03T01:17:55;2.92;;;0.90;;
44366;SDS011;30086;57.660;12.000;2023-04-03T01:25:40;4.45;;;1.20;;
44366;SDS011;30086;57.660;12.000;2023-04-03T01:28:25;4.57;;;1.00;;
44366;SDS011;30086;57.660;12.000;2023-04-03T01:33:21;1.60;;;1.08;;
44366;SDS011;30086;57.660;12.000;2023-04-03T01:35:47;3.47;;;1.27;;
44366;SDS011;30086;57.660;12.000;2023-04-03T01:38:13;4.50;;;0.82;;
44366;SDS011;30086;57.660;12.000;2023-04-03T01:40:40;1.52;;;0.88;;
44366;SDS011;30086;57.660;12.000;2023-04-03T01:43:06;1.63;;;0.63;;
44366;SDS011;30086;57.660;12.000;2023-04-03T01:45:32;3.30;;;0.90;;
44366;SDS011;30086;57.660;12.000;2023-04-03T01:47:58;4.65;;;1.05;;
44366;SDS011;30086;57.660;12.000;2023-04-03T01:50:24;2.28;;;0.90;;
44366;SDS011;30086;57.660;12.000;2023-04-03T01:52:50;9.40;;;1.38;;
44366;SDS011;30086;57.660;12.000;2023-04-03T01:55:16;2.10;;;0.82;;
44366;SDS011;30086;57.660;12.000;2023-04-03T01:57:42;4.97;;;1.20;;
44366;SDS011;30086;57.660;12.000;2023-04-03T02:00:08;2.05;;;0.88;;
44366;SDS011;30086;57.660;12.000;2023-04-03T02:02:35;1.98;;;0.77;;
44366;SDS011;30086;57.660;12.000;2023-04-03T02:05:01;3.45;;;1.05;;
44366;SDS011;30086;57.660;12.000;2023-04-03T02:07:27;2.25;;;1.00;;
44366;SDS011;30086;57.660;12.000;2023-04-03T02:09:53;4.25;;;1.10;;
44366;SDS011;30086;57.660;12.000;2023-04-03T02:12:19;1.35;;;0.90;;
44366;SDS011;30086;57.660;12.000;2023-04-03T02:14:45;5.07;;;1.60;;
44366;SDS011;30086;57.660;12.000;2023-04-03T02:17:11;4.20;;;1.75;;
44366;SDS011;30086;57.660;12.000;2023-04-03T02:19:37;3.75;;;1.05;;
44366;SDS011;30086;57.660;12.000;2023-04-03T02:22:04;3.60;;;1.00;;
44366;SDS011;30086;57.660;12.000;2023-04-03T02:24:30;3.50;;;0.90;;
44366;SDS011;30086;57.660;12.000;2023-04-03T02:26:57;2.47;;;0.80;;
44366;SDS011;30086;57.660;12.000;2023-04-03T02:29:23;2.25;;;1.00;;
44366;SDS011;30086;57.660;12.000;2023-04-03T02:31:49;4.05;;;1.25;;
44366;SDS011;30086;57.660;12.000;2023-04-03T02:34:16;2.00;;;0.73;;
44366;SDS011;30086;57.660;12.000;2023-04-03T02:36:42;5.43;;;1.00;;
44366;SDS011;30086;57.660;12.000;2023-04-03T02:39:08;2.35;;;1.00;;
44366;SDS011;30086;57.660;12.000;2023-04-03T02:41:34;1.85;;;0.68;;
44366;SDS011;30086;57.660;12.000;2023-04-03T02:44:04;1.85;;;1.05;;
44366;SDS011;30086;57.660;12.000;2023-04-03T02:46:30;4.20;;;1.00;;
44366;SDS011;30086;57.660;12.000;2023-04-03T02:48:56;3.03;;;0.80;;
44366;SDS011;30086;57.660;12.000;2023-04-03T02:51:22;2.78;;;1.00;;
44366;SDS011;30086;57.660;12.000;2023-04-03T02:53:49;8.23;;;1.58;;
44366;SDS011;30086;57.660;12.000;2023-04-03T02:56:16;3.40;;;0.93;;
44366;SDS011;30086;57.660;12.000;2023-04-03T02:58:43;4.43;;;1.00;;
44366;SDS011;30086;57.660;12.000;2023-04-03T03:01:09;4.13;;;0.63;;
44366;SDS011;30086;57.660;12.000;2023-04-03T03:03:35;2.70;;;0.88;;
44366;SDS011;30086;57.660;12.000;2023-04-03T03:06:08;3.67;;;0.80;;
44366;SDS011;30086;57.660;12.000;2023-04-03T03:08:35;2.22;;;0.93;;
44366;SDS011;30086;57.660;12.000;2023-04-03T03:11:01;3.13;;;0.80;;
44366;SDS011;30086;57.660;12.000;2023-04-03T03:13:27;2.35;;;0.70;;
44366;SDS011;30086;57.660;12.000;2023-04-03T03:15:53;3.95;;;1.30;;
44366;SDS011;30086;57.660;12.000;2023-04-03T03:18:20;2.63;;;0.90;;
44366;SDS011;30086;57.660;12.000;2023-04-03T03:20:46;6.20;;;1.20;;
44366;SDS011;30086;57.660;12.000;2023-04-03T03:23:15;4.70;;;1.33;;
44366;SDS011;30086;57.660;12.000;2023-04-03T03:25:41;3.25;;;0.90;;
44366;SDS011;30086;57.660;12.000;2023-04-03T03:28:07;3.45;;;0.90;;
44366;SDS011;30086;57.660;12.000;2023-04-03T03:30:33;6.82;;;0.98;;
44366;SDS011;30086;57.660;12.000;2023-04-03T03:33:00;5.57;;;1.02;;
44366;SDS011;30086;57.660;12.000;2023-04-03T03:35:26;7.07;;;1.00;;
44366;SDS011;30086;57.660;12.000;2023-04-03T03:37:52;3.25;;;1.17;;
44366;SDS011;30086;57.660;12.000;2023-04-03T03:40:18;6.25;;;1.25;;
44366;SDS011;30086;57.660;12.000;2023-04-03T03:42:44;2.63;;;0.82;;
44366;SDS011;30086;57.660;12.000;2023-04-03T03:45:11;2.78;;;0.93;;
44366;SDS011;30086;57.660;12.000;2023-04-03T03:47:36;4.68;;;1.17;;
44366;SDS011;30086;57.660;12.000;2023-04-03T03:50:03;5.38;;;0.70;;
44366;SDS011;30086;57.660;12.000;2023-04-03T03:52:29;5.38;;;1.10;;
44366;SDS011;30086;57.660;12.000;2023-04-03T03:54:55;6.05;;;0.90;;
44366;SDS011;30086;57.660;12.000;2023-04-03T03:57:22;2.22;;;0.70;;
44366;SDS011;30086;57.660;12.000;2023-04-03T03:59:48;3.28;;;0.80;;
44366;SDS011;30086;57.660;12.000;2023-04-03T04:02:15;3.35;;;1.15;;
44366;SDS011;30086;57.660;12.000;2023-04-03T04:04:41;2.58;;;1.00;;
44366;SDS011;30086;57.660;12.000;2023-04-03T04:07:07;1.83;;;0.68;;
44366;SDS011;30086;57.660;12.000;2023-04-03T04:09:33;2.72;;;0.60;;
44366;SDS011;30086;57.660;12.000;2023-04-03T04:12:01;2.90;;;1.17;;
44366;SDS011;30086;57.660;12.000;2023-04-03T04:14:27;1.60;;;0.60;;
44366;SDS011;30086;57.660;12.000;2023-04-03T04:16:53;2.40;;;0.85;;
44366;SDS011;30086;57.660;12.000;2023-04-03T04:19:19;6.43;;;0.90;;
44366;SDS011;30086;57.660;12.000;2023-04-03T04:21:45;3.90;;;1.42;;
44366;SDS011;30086;57.660;12.000;2023-04-03T04:24:11;7.03;;;1.25;;
44366;SDS011;30086;57.660;12.000;2023-04-03T04:26:37;14.65;;;1.25;;
44366;SDS011;30086;57.660;12.000;2023-04-03T04:29:03;4.43;;;1.48;;
44366;SDS011;30086;57.660;12.000;2023-04-03T04:31:29;22.02;;;1.85;;
44366;SDS011;30086;57.660;12.000;2023-04-03T04:33:55;17.70;;;1.83;;
44366;SDS011;30086;57.660;12.000;2023-04-03T04:36:21;16.52;;;1.98;;
44366;SDS011;30086;57.660;12.000;2023-04-03T04:38:48;21.10;;;3.75;;
44366;SDS011;30086;57.660;12.000;2023-04-03T04:41:17;15.93;;;1.95;;
44366;SDS011;30086;57.660;12.000;2023-04-03T04:43:46;16.27;;;2.85;;
44366;SDS011;30086;57.660;12.000;2023-04-03T04:46:12;17.80;;;3.00;;
44366;SDS011;30086;57.660;12.000;2023-04-03T04:48:38;23.10;;;1.80;;
44366;SDS011;30086;57.660;12.000;2023-04-03T04:51:05;14.63;;;2.60;;
44366;SDS011;30086;57.660;12.000;2023-04-03T04:53:31;21.70;;;2.10;;
44366;SDS011;30086;57.660;12.000;2023-04-03T04:55:57;15.38;;;1.83;;
44366;SDS011;30086;57.660;12.000;2023-04-03T04:58:24;21.08;;;2.17;;
44366;SDS011;30086;57.660;12.000;2023-04-03T05:00:57;18.83;;;2.13;;
44366;SDS011;30086;57.660;12.000;2023-04-03T05:03:23;20.55;;;2.45;;
44366;SDS011;30086;57.660;12.000;2023-04-03T05:05:49;8.48;;;1.63;;
44366;SDS011;30086;57.660;12.000;2023-04-03T05:08:15;11.35;;;1.85;;
44366;SDS011;30086;57.660;12.000;2023-04-03T05:10:41;15.43;;;2.10;;
44366;SDS011;30086;57.660;12.000;2023-04-03T05:13:07;21.27;;;2.42;;
44366;SDS011;30086;57.660;12.000;2023-04-03T05:15:33;11.93;;;1.55;;
44366;SDS011;30086;57.660;12.000;2023-04-03T05:17:59;14.63;;;2.00;;
44366;SDS011;30086;57.660;12.000;2023-04-03T05:20:26;17.90;;;2.50;;
44366;SDS011;30086;57.660;12.000;2023-04-03T05:22:52;12.00;;;1.83;;
44366;SDS011;30086;57.660;12.000;2023-04-03T05:25:18;28.48;;;3.90;;
44366;SDS011;30086;57.660;12.000;2023-04-03T05:27:44;21.52;;;3.22;;
44366;SDS011;30086;57.660;12.000;2023-04-03T05:30:10;20.80;;;2.58;;
44366;SDS011;30086;57.660;12.000;2023-04-03T05:32:36;15.90;;;2.65;;
44366;SDS011;30086;57.660;12.000;2023-04-03T05:35:02;44.03;;;3.38;;
44366;SDS011;30086;57.660;12.000;2023-04-03T05:37:28;22.27;;;2.42;;
44366;SDS011;30086;57.660;12.000;2023-04-03T05:39:54;12.35;;;2.40;;
44366;SDS011;30086;57.660;12.000;2023-04-03T05:42:20;17.58;;;2.53;;
44366;SDS011;30086;57.660;12.000;2023-04-03T05:44:46;24.35;;;2.78;;
44366;SDS011;30086;57.660;12.000;2023-04-03T05:47:13;32.92;;;2.85;;
44366;SDS011;30086;57.660;12.000;2023-04-03T05:49:39;19.25;;;3.03;;
44366;SDS011;30086;57.660;12.000;2023-04-03T05:52:06;28.58;;;2.78;;
44366;SDS011;30086;57.660;12.000;2023-04-03T05:54:35;21.05;;;2.92;;
44366;SDS011;30086;57.660;12.000;2023-04-03T05:57:01;22.15;;;3.33;;
44366;SDS011;30086;57.660;12.000;2023-04-03T05:59:27;16.02;;;2.20;;
44366;SDS011;30086;57.660;12.000;2023-04-03T06:01:54;17.90;;;2.28;;
44366;SDS011;30086;57.660;12.000;2023-04-03T06:04:20;19.75;;;2.42;;
44366;SDS011;30086;57.660;12.000;2023-04-03T06:06:47;18.55;;;2.25;;
44366;SDS011;30086;57.660;12.000;2023-04-03T06:09:14;22.25;;;3.10;;
44366;SDS011;30086;57.660;12.000;2023-04-03T06:11:41;31.08;;;3.30;;
44366;SDS011;30086;57.660;12.000;2023-04-03T06:14:08;16.10;;;2.17;;
44366;SDS011;30086;57.660;12.000;2023-04-03T06:16:34;19.15;;;3.60;;
44366;SDS011;30086;57.660;12.000;2023-04-03T06:19:02;18.38;;;2.30;;
44366;SDS011;30086;57.660;12.000;2023-04-03T06:21:29;19.33;;;2.20;;
44366;SDS011;30086;57.660;12.000;2023-04-03T06:23:55;8.93;;;2.03;;
44366;SDS011;30086;57.660;12.000;2023-04-03T06:26:21;12.60;;;2.47;;
44366;SDS011;30086;57.660;12.000;2023-04-03T06:28:47;17.27;;;2.35;;
44366;SDS011;30086;57.660;12.000;2023-04-03T06:31:15;18.02;;;2.00;;
44366;SDS011;30086;57.660;12.000;2023-04-03T06:33:43;22.38;;;2.63;;
44366;SDS011;30086;57.660;12.000;2023-04-03T06:36:09;16.92;;;2.20;;
44366;SDS011;30086;57.660;12.000;2023-04-03T06:38:37;8.70;;;2.38;;
44366;SDS011;30086;57.660;12.000;2023-04-03T06:41:04;13.25;;;2.50;;
44366;SDS011;30086;57.660;12.000;2023-04-03T06:43:30;12.98;;;2.35;;
44366;SDS011;30086;57.660;12.000;2023-04-03T06:45:57;7.05;;;2.05;;
44366;SDS011;30086;57.660;12.000;2023-04-03T06:48:23;7.80;;;1.80;;
44366;SDS011;30086;57.660;12.000;2023-04-03T06:50:49;7.05;;;1.70;;
44366;SDS011;30086;57.660;12.000;2023-04-03T06:53:15;13.52;;;1.70;;
44366;SDS011;30086;57.660;12.000;2023-04-03T06:55:41;18.38;;;2.58;;
44366;SDS011;30086;57.660;12.000;2023-04-03T06:58:08;9.80;;;2.58;;
44366;SDS011;30086;57.660;12.000;2023-04-03T07:00:35;16.77;;;2.45;;
44366;SDS011;30086;57.660;12.000;2023-04-03T07:03:01;8.30;;;1.15;;
44366;SDS011;30086;57.660;12.000;2023-04-03T07:05:30;4.13;;;1.33;;
44366;SDS011;30086;57.660;12.000;2023-04-03T07:07:56;6.45;;;1.20;;
44366;SDS011;30086;57.660;12.000;2023-04-03T07:10:22;4.78;;;1.17;;
44366;SDS011;30086;57.660;12.000;2023-04-03T07:12:49;5.15;;;1.02;;
44366;SDS011;30086;57.660;12.000;2023-04-03T07:15:16;2.50;;;1.08;;
44366;SDS011;30086;57.660;12.000;2023-04-03T07:17:42;3.42;;;1.20;;
44366;SDS011;30086;57.660;12.000;2023-04-03T07:20:09;4.55;;;1.00;;
44366;SDS011;30086;57.660;12.000;2023-04-03T07:22:36;2.78;;;1.00;;
44366;SDS011;30086;57.660;12.000;2023-04-03T07:25:03;3.60;;;1.15;;
44366;SDS011;30086;57.660;12.000;2023-04-03T07:27:31;5.25;;;1.10;;
44366;SDS011;30086;57.660;12.000;2023-04-03T07:29:57;5.85;;;1.17;;
44366;SDS011;30086;57.660;12.000;2023-04-03T07:32:23;5.10;;;1.23;;
44366;SDS011;30086;57.660;12.000;2023-04-03T07:34:49;10.25;;;0.98;;
44366;SDS011;30086;57.660;12.000;2023-04-03T07:37:16;8.65;;;1.73;;
44366;SDS011;30086;57.660;12.000;2023-04-03T07:39:43;5.53;;;1.50;;
44366;SDS011;30086;57.660;12.000;2023-04-03T07:42:10;4.50;;;1.33;;
44366;SDS011;30086;57.660;12.000;2023-04-03T07:44:37;7.38;;;1.00;;
44366;SDS011;30086;57.660;12.000;2023-04-03T07:47:03;3.35;;;1.10;;
44366;SDS011;30086;57.660;12.000;2023-04-03T07:49:31;9.98;;;1.00;;
44366;SDS011;30086;57.660;12.000;2023-04-03T07:51:57;1.65;;;0.70;;
44366;SDS011;30086;57.660;12.000;2023-04-03T07:54:25;7.38;;;1.13;;
44366;SDS011;30086;57.660;12.000;2023-04-03T07:56:51;10.52;;;1.10;;
44366;SDS011;30086;57.660;12.000;2023-04-03T07:59:22;2.55;;;0.70;;
44366;SDS011;30086;57.660;12.000;2023-04-03T08:01:49;6.55;;;0.82;;
44366;SDS011;30086;57.660;12.000;2023-04-03T08:04:24;1.10;;;0.70;;
44366;SDS011;30086;57.660;12.000;2023-04-03T08:06:51;5.07;;;1.00;;
44366;SDS011;30086;57.660;12.000;2023-04-03T08:09:17;2.83;;;0.73;;
44366;SDS011;30086;57.660;12.000;2023-04-03T08:11:45;7.90;;;1.00;;
44366;SDS011;30086;57.660;12.000;2023-04-03T08:14:14;3.80;;;0.80;;
44366;SDS011;30086;57.660;12.000;2023-04-03T08:16:46;1.55;;;0.75;;
44366;SDS011;30086;57.660;12.000;2023-04-03T08:19:13;2.35;;;0.82;;
44366;SDS011;30086;57.660;12.000;2023-04-03T08:21:41;5.95;;;0.80;;
44366;SDS011;30086;57.660;12.000;2023-04-03T08:24:08;4.50;;;1.00;;
44366;SDS011;30086;57.660;12.000;2023-04-03T08:26:36;4.70;;;1.08;;
44366;SDS011;30086;57.660;12.000;2023-04-03T08:29:02;4.68;;;1.38;;
44366;SDS011;30086;57.660;12.000;2023-04-03T08:31:28;4.72;;;1.10;;
44366;SDS011;30086;57.660;12.000;2023-04-03T08:33:56;5.45;;;0.90;;
44366;SDS011;30086;57.660;12.000;2023-04-03T08:36:24;1.63;;;0.80;;
44366;SDS011;30086;57.660;12.000;2023-04-03T08:38:56;2.03;;;0.70;;
44366;SDS011;30086;57.660;12.000;2023-04-03T08:41:31;3.22;;;1.15;;
44366;SDS011;30086;57.660;12.000;2023-04-03T08:49:18;1.83;;;0.63;;
44366;SDS011;30086;57.660;12.000;2023-04-03T08:51:49;5.20;;;1.05;;
44366;SDS011;30086;57.660;12.000;2023-04-03T08:54:35;3.95;;;0.88;;
44366;SDS011;30086;57.660;12.000;2023-04-03T08:57:04;2.00;;;0.95;;
44366;SDS011;30086;57.660;12.000;2023-04-03T08:59:34;1.48;;;0.60;;
44366;SDS011;30086;57.660;12.000;2023-04-03T09:02:04;1.35;;;0.50;;
44366;SDS011;30086;57.660;12.000;2023-04-03T09:04:32;2.38;;;0.70;;
44366;SDS011;30086;57.660;12.000;2023-04-03T09:07:13;6.45;;;1.38;;
44366;SDS011;30086;57.660;12.000;2023-04-03T09:09:41;1.80;;;1.05;;
44366;SDS011;30086;57.660;12.000;2023-04-03T09:12:19;2.00;;;0.93;;
44366;SDS011;30086;57.660;12.000;2023-04-03T09:22:28;4.13;;;0.80;;
44366;SDS011;30086;57.660;12.000;2023-04-03T09:27:27;1.35;;;0.70;;
44366;SDS011;30086;57.660;12.000;2023-04-03T09:29:53;1.40;;;0.55;;
44366;SDS011;30086;57.660;12.000;2023-04-03T09:32:22;6.88;;;1.20;;
44366;SDS011;30086;57.660;12.000;2023-04-03T09:34:50;3.22;;;0.70;;
44366;SDS011;30086;57.660;12.000;2023-04-03T09:37:33;1.30;;;0.65;;
44366;SDS011;30086;57.660;12.000;2023-04-03T09:40:02;1.25;;;0.55;;
44366;SDS011;30086;57.660;12.000;2023-04-03T09:42:29;3.60;;;0.65;;
44366;SDS011;30086;57.660;12.000;2023-04-03T09:45:00;2.55;;;0.60;;
44366;SDS011;30086;57.660;12.000;2023-04-03T09:47:30;3.17;;;0.60;;
44366;SDS011;30086;57.660;12.000;2023-04-03T09:52:44;0.82;;;0.50;;
44366;SDS011;30086;57.660;12.000;2023-04-03T09:55:16;5.78;;;0.40;;
44366;SDS011;30086;57.660;12.000;2023-04-03T09:57:43;2.50;;;0.73;;
44366;SDS011;30086;57.660;12.000;2023-04-03T10:00:19;4.25;;;0.80;;
44366;SDS011;30086;57.660;12.000;2023-04-03T10:02:46;10.32;;;0.90;;
44366;SDS011;30086;57.660;12.000;2023-04-03T10:05:30;3.90;;;1.10;;
44366;SDS011;30086;57.660;12.000;2023-04-03T10:10:36;4.90;;;1.05;;
44366;SDS011;30086;57.660;12.000;2023-04-03T10:15:36;0.65;;;0.50;;
44366;SDS011;30086;57.660;12.000;2023-04-03T10:18:09;7.68;;;0.70;;
44366;SDS011;30086;57.660;12.000;2023-04-03T10:20:37;3.17;;;1.00;;
44366;SDS011;30086;57.660;12.000;2023-04-03T10:23:21;1.73;;;0.80;;
44366;SDS011;30086;57.660;12.000;2023-04-03T10:41:23;3.20;;;0.70;;
44366;SDS011;30086;57.660;12.000;2023-04-03T10:51:58;2.90;;;0.70;;
44366;SDS011;30086;57.660;12.000;2023-04-03T10:54:32;1.88;;;0.70;;
44366;SDS011;30086;57.660;12.000;2023-04-03T10:57:06;0.93;;;0.68;;
44366;SDS011;30086;57.660;12.000;2023-04-03T10:59:38;3.65;;;0.93;;
44366;SDS011;30086;57.660;12.000;2023-04-03T11:02:19;3.15;;;1.15;;
44366;SDS011;30086;57.660;12.000;2023-04-03T11:04:48;0.70;;;0.65;;
44366;SDS011;30086;57.660;12.000;2023-04-03T11:07:21;3.67;;;0.90;;
44366;SDS011;30086;57.660;12.000;2023-04-03T11:09:50;1.75;;;0.90;;
44366;SDS011;30086;57.660;12.000;2023-04-03T11:14:49;4.78;;;1.00;;
44366;SDS011;30086;57.660;12.000;2023-04-03T11:28:17;4.50;;;0.82;;
44366;SDS011;30086;57.660;12.000;2023-04-03T11:30:27;1.50;;;0.68;;
44366;SDS011;30086;57.660;12.000;2023-04-03T11:35:23;3.65;;;0.85;;
44366;SDS011;30086;57.660;12.000;2023-04-03T11:37:53;1.77;;;0.75;;
44366;SDS011;30086;57.660;12.000;2023-04-03T11:42:49;3.50;;;1.10;;
44366;SDS011;30086;57.660;12.000;2023-04-03T11:45:26;2.95;;;1.02;;
44366;SDS011;30086;57.660;12.000;2023-04-03T11:47:54;7.53;;;1.23;;
44366;SDS011;30086;57.660;12.000;2023-04-03T11:52:56;1.27;;;0.55;;
44366;SDS011;30086;57.660;12.000;2023-04-03T12:21:18;5.35;;;1.15;;
44366;SDS011;30086;57.660;12.000;2023-04-03T12:23:56;2.38;;;0.65;;
44366;SDS011;30086;57.660;12.000;2023-04-03T12:26:24;2.53;;;0.90;;
44366;SDS011;30086;57.660;12.000;2023-04-03T12:28:51;0.40;;;0.30;;
44366;SDS011;30086;57.660;12.000;2023-04-03T12:31:18;3.28;;;0.73;;
44366;SDS011;30086;57.660;12.000;2023-04-03T12:41:25;7.13;;;0.70;;
44366;SDS011;30086;57.660;12.000;2023-04-03T12:44:00;2.97;;;1.00;;
44366;SDS011;30086;57.660;12.000;2023-04-03T12:46:35;5.68;;;1.15;;
44366;SDS011;30086;57.660;12.000;2023-04-03T12:49:12;3.40;;;1.00;;
44366;SDS011;30086;57.660;12.000;2023-04-03T12:51:41;4.10;;;0.95;;
44366;SDS011;30086;57.660;12.000;2023-04-03T12:54:53;5.35;;;0.77;;
44366;SDS011;30086;57.660;12.000;2023-04-03T12:59:36;0.43;;;0.43;;
44366;SDS011;30086;57.660;12.000;2023-04-03T13:02:09;2.83;;;0.68;;
44366;SDS011;30086;57.660;12.000;2023-04-03T13:04:37;1.25;;;0.82;;
44366;SDS011;30086;57.660;12.000;2023-04-03T13:07:05;3.78;;;1.10;;
44366;SDS011;30086;57.660;12.000;2023-04-03T13:09:48;3.35;;;0.70;;
44366;SDS011;30086;57.660;12.000;2023-04-03T13:12:20;0.75;;;0.50;;
44366;SDS011;30086;57.660;12.000;2023-04-03T13:14:54;0.90;;;0.45;;
44366;SDS011;30086;57.660;12.000;2023-04-03T13:17:20;7.40;;;1.52;;
44366;SDS011;30086;57.660;12.000;2023-04-03T13:19:46;1.20;;;0.68;;
44366;SDS011;30086;57.660;12.000;2023-04-03T13:22:31;0.65;;;0.60;;
44366;SDS011;30086;57.660;12.000;2023-04-03T13:24:59;1.67;;;0.45;;
44366;SDS011;30086;57.660;12.000;2023-04-03T13:27:28;3.47;;;0.98;;
44366;SDS011;30086;57.660;12.000;2023-04-03T13:29:57;4.63;;;0.95;;
44366;SDS011;30086;57.660;12.000;2023-04-03T13:32:24;7.95;;;1.77;;
44366;SDS011;30086;57.660;12.000;2023-04-03T13:34:52;1.50;;;0.60;;
44366;SDS011;30086;57.660;12.000;2023-04-03T13:37:21;3.00;;;0.60;;
44366;SDS011;30086;57.660;12.000;2023-04-03T13:39:56;3.60;;;0.80;;
44366;SDS011;30086;57.660;12.000;2023-04-03T13:42:25;1.55;;;0.43;;
44366;SDS011;30086;57.660;12.000;2023-04-03T13:47:40;2.50;;;0.70;;
44366;SDS011;30086;57.660;12.000;2023-04-03T13:50:21;0.55;;;0.47;;
44366;SDS011;30086;57.660;12.000;2023-04-03T13:55:30;3.80;;;0.70;;
44366;SDS011;30086;57.660;12.000;2023-04-03T14:03:24;2.75;;;0.63;;
44366;SDS011;30086;57.660;12.000;2023-04-03T14:05:51;0.75;;;0.45;;
44366;SDS011;30086;57.660;12.000;2023-04-03T14:08:18;2.97;;;0.90;;
44366;SDS011;30086;57.660;12.000;2023-04-03T14:10:45;1.55;;;0.40;;
44366;SDS011;30086;57.660;12.000;2023-04-03T14:13:15;2.65;;;0.85;;
44366;SDS011;30086;57.660;12.000;2023-04-03T14:15:42;3.35;;;0.82;;
44366;SDS011;30086;57.660;12.000;2023-04-03T14:18:12;0.55;;;0.40;;
44366;SDS011;30086;57.660;12.000;2023-04-03T14:20:41;3.13;;;0.82;;
44366;SDS011;30086;57.660;12.000;2023-04-03T14:23:07;1.30;;;0.80;;
44366;SDS011;30086;57.660;12.000;2023-04-03T14:25:33;1.65;;;0.45;;
44366;SDS011;30086;57.660;12.000;2023-04-03T14:28:00;1.75;;;0.68;;
44366;SDS011;30086;57.660;12.000;2023-04-03T14:30:28;0.20;;;0.20;;
44366;SDS011;30086;57.660;12.000;2023-04-03T14:32:55;2.15;;;0.68;;
44366;SDS011;30086;57.660;12.000;2023-04-03T14:35:22;1.05;;;0.52;;
44366;SDS011;30086;57.660;12.000;2023-04-03T14:37:48;0.85;;;0.47;;
44366;SDS011;30086;57.660;12.000;2023-04-03T14:40:17;2.25;;;0.60;;
44366;SDS011;30086;57.660;12.000;2023-04-03T14:42:44;1.42;;;0.70;;
44366;SDS011;30086;57.660;12.000;2023-04-03T14:45:13;6.53;;;1.73;;
44366;SDS011;30086;57.660;12.000;2023-04-03T14:47:46;5.22;;;0.65;;
44366;SDS011;30086;57.660;12.000;2023-04-03T14:50:19;1.02;;;0.60;;
44366;SDS011;30086;57.660;12.000;2023-04-03T14:52:46;1.83;;;0.77;;
44366;SDS011;30086;57.660;12.000;2023-04-03T14:55:18;2.22;;;0.63;;
44366;SDS011;30086;57.660;12.000;2023-04-03T14:57:44;2.95;;;0.80;;
44366;SDS011;30086;57.660;12.000;2023-04-03T15:00:15;2.05;;;0.95;;
44366;SDS011;30086;57.660;12.000;2023-04-03T15:02:43;4.07;;;0.88;;
44366;SDS011;30086;57.660;12.000;2023-04-03T15:05:10;1.55;;;0.75;;
44366;SDS011;30086;57.660;12.000;2023-04-03T15:07:37;2.85;;;0.75;;
44366;SDS011;30086;57.660;12.000;2023-04-03T15:12:37;3.83;;;0.45;;
44366;SDS011;30086;57.660;12.000;2023-04-03T15:15:05;2.88;;;0.25;;
44366;SDS011;30086;57.660;12.000;2023-04-03T15:17:31;2.67;;;0.73;;
44366;SDS011;30086;57.660;12.000;2023-04-03T15:19:58;0.32;;;0.30;;
44366;SDS011;30086;57.660;12.000;2023-04-03T15:22:24;1.98;;;0.75;;
44366;SDS011;30086;57.660;12.000;2023-04-03T15:24:51;1.08;;;0.52;;
44366;SDS011;30086;57.660;12.000;2023-04-03T15:27:18;4.03;;;0.60;;
44366;SDS011;30086;57.660;12.000;2023-04-03T15:29:49;7.63;;;0.70;;
44366;SDS011;30086;57.660;12.000;2023-04-03T15:32:18;1.00;;;0.45;;
44366;SDS011;30086;57.660;12.000;2023-04-03T15:34:45;1.63;;;0.52;;
44366;SDS011;30086;57.660;12.000;2023-04-03T15:37:11;3.85;;;1.20;;
44366;SDS011;30086;57.660;12.000;2023-04-03T15:39:37;4.68;;;0.57;;
44366;SDS011;30086;57.660;12.000;2023-04-03T15:42:03;1.48;;;0.60;;
44366;SDS011;30086;57.660;12.000;2023-04-03T15:44:31;1.02;;;0.40;;
44366;SDS011;30086;57.660;12.000;2023-04-03T15:47:00;3.58;;;0.60;;
44366;SDS011;30086;57.660;12.000;2023-04-03T15:49:26;1.60;;;0.45;;
44366;SDS011;30086;57.660;12.000;2023-04-03T15:51:56;1.90;;;0.68;;
44366;SDS011;30086;57.660;12.000;2023-04-03T15:54:22;0.40;;;0.17;;
44366;SDS011;30086;57.660;12.000;2023-04-03T15:56:49;1.30;;;0.30;;
44366;SDS011;30086;57.660;12.000;2023-04-03T15:59:16;3.25;;;0.80;;
44366;SDS011;30086;57.660;12.000;2023-04-03T16:01:44;2.17;;;0.50;;
44366;SDS011;30086;57.660;12.000;2023-04-03T16:04:14;1.48;;;0.80;;
44366;SDS011;30086;57.660;12.000;2023-04-03T16:06:40;2.17;;;0.47;;
44366;SDS011;30086;57.660;12.000;2023-04-03T16:09:07;0.55;;;0.25;;
44366;SDS011;30086;57.660;12.000;2023-04-03T16:11:33;2.22;;;0.75;;
44366;SDS011;30086;57.660;12.000;2023-04-03T16:14:05;4.80;;;0.73;;
44366;SDS011;30086;57.660;12.000;2023-04-03T16:16:31;6.57;;;0.60;;
44366;SDS011;30086;57.660;12.000;2023-04-03T16:18:57;3.00;;;0.85;;
44366;SDS011;30086;57.660;12.000;2023-04-03T16:21:23;3.20;;;0.90;;
44366;SDS011;30086;57.660;12.000;2023-04-03T16:23:50;1.05;;;0.68;;
44366;SDS011;30086;57.660;12.000;2023-04-03T16:26:16;0.93;;;0.60;;
44366;SDS011;30086;57.660;12.000;2023-04-03T16:28:42;2.95;;;0.90;;
44366;SDS011;30086;57.660;12.000;2023-04-03T16:31:10;5.95;;;0.65;;
44366;SDS011;30086;57.660;12.000;2023-04-03T16:33:38;1.50;;;0.68;;
44366;SDS011;30086;57.660;12.000;2023-04-03T16:36:04;0.80;;;0.15;;
44366;SDS011;30086;57.660;12.000;2023-04-03T16:38:31;2.83;;;0.43;;
44366;SDS011;30086;57.660;12.000;2023-04-03T16:40:57;2.08;;;0.35;;
44366;SDS011;30086;57.660;12.000;2023-04-03T16:43:27;0.32;;;0.30;;